Time;durP1;ratioP1;P1;durP2;ratioP2;P2;SDS_P1;SDS_P2;PMS_P1;PMS_P2;Temp;Humidity;BMP_temperature;BMP_pressure;BME280_temperature;BME280_humidity;BME280_pressure;Samples;Min_cycle;Max_cycle;Signal;HPM_P1;HPM_P2
2022/06/29 00:01:45;;;;;;;4.93;4.43;;;;;;;15.93;70.82;101510.91;5082343;28;20021;-70
2022/06/29 00:04:11;;;;;;;5.90;4.90;;;;;;;15.91;71.54;101517.56;5086611;28;20036;-70
2022/06/29 00:06:36;;;;;;;4.55;4.13;;;;;;;15.88;72.05;101517.81;5066674;28;20098;-70
2022/06/29 00:09:01;;;;;;;6.30;4.20;;;;;;;15.85;71.50;101510.69;5067095;28;20036;-70
2022/06/29 00:11:27;;;;;;;7.50;4.80;;;;;;;15.80;71.63;101505.59;5065984;28;20309;-70
2022/06/29 00:13:52;;;;;;;5.32;4.25;;;;;;;15.79;71.92;101512.06;5065204;28;20143;-70
2022/06/29 00:16:17;;;;;;;8.85;4.53;;;;;;;15.77;72.85;101505.00;5065286;28;20040;-70
2022/06/29 00:18:43;;;;;;;6.55;4.70;;;;;;;15.69;72.11;101502.88;5065693;28;20032;-70
2022/06/29 00:21:08;;;;;;;7.22;5.68;;;;;;;15.68;73.00;101505.75;5066095;28;20063;-70
2022/06/29 00:23:33;;;;;;;6.07;4.78;;;;;;;15.61;73.03;101507.22;5066590;28;20044;-69
2022/06/29 00:25:59;;;;;;;7.93;4.75;;;;;;;15.59;72.74;101498.25;5083962;28;20028;-70
2022/06/29 00:28:25;;;;;;;5.95;4.72;;;;;;;15.55;72.53;101495.75;5085784;28;20374;-70
2022/06/29 00:30:50;;;;;;;5.45;4.88;;;;;;;15.45;74.76;101494.78;5067648;28;20025;-70
2022/06/29 00:33:15;;;;;;;6.65;4.75;;;;;;;15.39;74.02;101495.31;5079008;28;20460;-70
2022/06/29 00:35:41;;;;;;;5.70;5.10;;;;;;;15.35;73.83;101499.28;5069828;28;20028;-70
2022/06/29 00:38:06;;;;;;;8.10;5.20;;;;;;;15.32;73.97;101486.69;5066356;28;20028;-70
2022/06/29 00:40:31;;;;;;;8.18;4.90;;;;;;;15.31;73.79;101497.78;5066271;28;20028;-70
2022/06/29 00:42:57;;;;;;;6.82;4.60;;;;;;;15.28;74.34;101498.03;5065389;28;20051;-70
2022/06/29 00:45:22;;;;;;;6.57;5.45;;;;;;;15.18;76.50;101491.56;5064987;28;20132;-71
2022/06/29 00:47:48;;;;;;;6.68;5.35;;;;;;;15.17;76.37;101485.22;5067662;28;20036;-70
2022/06/29 00:50:13;;;;;;;8.35;5.22;;;;;;;15.15;75.52;101489.06;5071884;28;20075;-70
2022/06/29 00:52:42;;;;;;;7.53;5.45;;;;;;;15.09;75.62;101482.22;5069221;28;20028;-70
2022/06/29 00:55:15;;;;;;;6.82;4.93;;;;;;;15.06;74.47;101476.97;5068033;28;20016;-70
2022/06/29 00:57:45;;;;;;;5.93;5.07;;;;;;;15.04;74.75;101482.59;5084734;28;20041;-70
2022/06/29 01:00:11;;;;;;;6.47;5.80;;;;;;;15.00;74.76;101474.75;5068520;28;20037;-70
2022/06/29 01:02:37;;;;;;;7.28;5.78;;;;;;;14.96;74.80;101476.84;5076812;28;20043;-70
2022/06/29 01:05:04;;;;;;;10.98;5.57;;;;;;;14.96;74.80;101473.25;5083859;28;20090;-70
2022/06/29 01:07:32;;;;;;;6.40;5.70;;;;;;;14.93;75.27;101468.91;5069889;28;20483;-70
2022/06/29 01:09:58;;;;;;;8.95;5.90;;;;;;;14.87;76.33;101466.63;5088788;28;20040;-70
2022/06/29 01:12:24;;;;;;;8.25;6.05;;;;;;;14.83;76.05;101458.78;5068895;28;20513;-70
2022/06/29 01:14:50;;;;;;;5.95;5.35;;;;;;;14.78;75.58;101465.53;5068066;28;20017;-70
2022/06/29 01:17:16;;;;;;;7.20;5.50;;;;;;;14.80;75.86;101468.16;5069669;28;20126;-70
2022/06/29 01:19:43;;;;;;;6.22;5.60;;;;;;;14.76;76.75;101466.66;5069111;28;20055;-70
2022/06/29 01:22:13;;;;;;;10.05;5.90;;;;;;;14.69;78.19;101473.63;5069711;28;20476;-70
2022/06/29 01:24:40;;;;;;;10.07;5.80;;;;;;;14.66;77.11;101474.72;5069312;28;20028;-70
2022/06/29 01:27:05;;;;;;;6.35;5.57;;;;;;;14.63;77.48;101466.75;5067883;28;20396;-70
2022/06/29 01:29:31;;;;;;;6.75;5.82;;;;;;;14.58;77.70;101462.63;5069031;28;20036;-70
2022/06/29 01:31:57;;;;;;;6.80;5.90;;;;;;;14.54;77.65;101459.25;5070678;28;20123;-70
2022/06/29 01:34:24;;;;;;;11.38;5.90;;;;;;;14.51;78.13;101454.91;5088458;28;21134;-69
2022/06/29 01:36:49;;;;;;;7.45;5.72;;;;;;;14.48;77.88;101457.88;5068978;28;20527;-68
2022/06/29 01:39:15;;;;;;;8.98;5.90;;;;;;;14.42;78.52;101460.22;5069163;28;20032;-70
2022/06/29 01:41:40;;;;;;;6.90;5.90;;;;;;;14.41;78.48;101459.34;5066464;28;20066;-70
2022/06/29 01:44:06;;;;;;;7.90;6.30;;;;;;;14.39;78.43;101464.06;5067384;28;20024;-70
2022/06/29 01:46:31;;;;;;;6.97;5.88;;;;;;;14.38;77.84;101455.97;5069762;28;20032;-70
2022/06/29 01:48:56;;;;;;;6.50;5.70;;;;;;;14.36;77.21;101453.38;5068711;28;20032;-70
2022/06/29 01:51:22;;;;;;;11.38;6.60;;;;;;;14.33;77.58;101452.72;5068237;28;20449;-70
2022/06/29 01:53:47;;;;;;;7.15;6.28;;;;;;;14.30;77.66;101449.22;5067581;28;20409;-69
2022/06/29 01:56:12;;;;;;;11.35;6.93;;;;;;;14.29;78.03;101452.97;5067784;28;20365;-70
2022/06/29 01:58:38;;;;;;;7.65;6.60;;;;;;;14.26;77.26;101444.09;5067631;28;20044;-71
2022/06/29 02:01:04;;;;;;;9.20;6.70;;;;;;;14.21;77.41;101446.34;5067900;28;20044;-69
2022/06/29 02:03:29;;;;;;;7.85;6.70;;;;;;;14.19;77.46;101443.72;5083690;28;20449;-70
2022/06/29 02:05:54;;;;;;;7.93;6.30;;;;;;;14.14;77.05;101435.00;5082266;28;20053;-70
2022/06/29 02:08:20;;;;;;;8.38;6.60;;;;;;;14.14;77.90;101436.88;5068594;28;20491;-70
2022/06/29 02:10:45;;;;;;;8.90;6.00;;;;;;;14.13;77.54;101440.56;5067420;28;20036;-70
2022/06/29 02:13:10;;;;;;;6.20;5.63;;;;;;;14.09;77.26;101439.97;5083462;28;20112;-70
2022/06/29 02:15:36;;;;;;;6.93;6.20;;;;;;;14.10;77.66;101449.91;5067460;28;20036;-70
2022/06/29 02:18:02;;;;;;;11.88;6.28;;;;;;;14.08;77.08;101442.81;5069317;28;20134;-70
2022/06/29 02:20:28;;;;;;;8.30;6.68;;;;;;;14.04;77.54;101443.06;5066122;28;20123;-70
2022/06/29 02:22:54;;;;;;;8.15;6.95;;;;;;;14.01;77.62;101442.41;5068435;28;20040;-68
2022/06/29 02:25:20;;;;;;;7.38;6.70;;;;;;;14.00;78.15;101447.03;5067480;28;20523;-70
2022/06/29 02:27:45;;;;;;;7.63;6.93;;;;;;;13.99;77.98;101445.28;5067559;28;20132;-70
2022/06/29 02:30:13;;;;;;;9.20;7.10;;;;;;;14.01;77.92;101437.81;5066962;28;20070;-70
2022/06/29 02:35:22;;;;;;;8.93;6.82;;;;;;;14.07;76.78;101438.31;5067700;28;20075;-70
2022/06/29 02:37:47;;;;;;;7.57;6.88;;;;;;;14.09;77.66;101436.38;5068223;28;20067;-71
2022/06/29 02:40:13;;;;;;;9.60;7.15;;;;;;;14.08;78.45;101440.94;5066874;28;20119;-70
2022/06/29 02:42:38;;;;;;;8.85;6.70;;;;;;;14.08;77.83;101437.34;5067277;28;20142;-70
2022/06/29 02:45:04;;;;;;;9.13;7.10;;;;;;;14.06;77.96;101437.47;5064475;28;20088;-68
2022/06/29 02:47:29;;;;;;;11.52;8.05;;;;;;;14.01;78.55;101435.09;5068357;28;20086;-70
2022/06/29 02:49:55;;;;;;;7.65;6.85;;;;;;;14.02;78.40;101425.00;5067303;28;20047;-70
2022/06/29 02:52:20;;;;;;;7.88;6.45;;;;;;;14.01;77.98;101424.13;5067878;28;20036;-70
2022/06/29 02:54:45;;;;;;;6.85;6.07;;;;;;;14.02;77.84;101425.00;5067837;28;20040;-72
2022/06/29 02:57:11;;;;;;;7.72;6.93;;;;;;;14.02;77.86;101422.28;5066718;28;20044;-70
2022/06/29 02:59:37;;;;;;;8.38;6.93;;;;;;;13.98;77.58;101421.63;5066405;28;20032;-70
2022/06/29 03:02:03;;;;;;;7.90;6.63;;;;;;;13.96;77.66;101420.03;5070862;28;20442;-69
2022/06/29 03:04:28;;;;;;;8.50;7.32;;;;;;;13.95;78.25;101416.41;5086607;28;20040;-70
2022/06/29 03:06:53;;;;;;;11.40;7.22;;;;;;;13.89;78.41;101405.94;5067469;28;20028;-70
2022/06/29 03:09:18;;;;;;;8.18;7.38;;;;;;;13.85;79.26;101412.66;5076709;28;20468;-70
2022/06/29 03:11:44;;;;;;;8.90;7.28;;;;;;;13.85;78.65;101415.38;5065477;28;20529;-68
2022/06/29 03:14:09;;;;;;;8.10;7.28;;;;;;;13.83;78.67;101403.69;5065598;28;20028;-69
2022/06/29 03:16:35;;;;;;;7.82;7.03;;;;;;;13.82;78.19;101401.06;5067298;28;20109;-70
2022/06/29 03:19:00;;;;;;;8.60;7.25;;;;;;;13.78;78.94;101401.28;5067566;28;20479;-70
2022/06/29 03:21:25;;;;;;;8.93;7.30;;;;;;;13.79;78.57;101407.63;5078252;28;20427;-70
2022/06/29 03:23:51;;;;;;;9.38;7.25;;;;;;;13.76;78.34;101400.56;5069040;28;20032;-71
2022/06/29 03:26:17;;;;;;;9.70;8.38;;;;;;;13.78;78.50;101406.75;5074921;28;20077;-70
2022/06/29 03:28:43;;;;;;;9.75;8.32;;;;;;;13.78;79.52;101397.69;5065958;28;20040;-70
2022/06/29 03:31:08;;;;;;;9.98;8.48;;;;;;;13.79;78.60;101400.31;5066179;28;20052;-70
2022/06/29 03:33:34;;;;;;;10.60;7.88;;;;;;;13.79;78.40;101397.56;5082150;28;20027;-68
2022/06/29 03:35:59;;;;;;;8.43;7.60;;;;;;;13.83;78.70;101390.00;5074402;28;20043;-70
2022/06/29 03:38:24;;;;;;;8.23;7.43;;;;;;;13.83;78.48;101392.72;5066779;28;20036;-70
2022/06/29 03:40:51;;;;;;;10.40;8.48;;;;;;;13.83;78.66;101383.66;5065910;28;20035;-70
2022/06/29 03:43:17;;;;;;;8.95;7.60;;;;;;;13.83;78.66;101376.31;5066701;28;20623;-70
2022/06/29 03:45:42;;;;;;;8.45;7.65;;;;;;;13.82;78.18;101377.31;5069853;28;20038;-70
2022/06/29 03:48:08;;;;;;;7.93;7.13;;;;;;;13.85;78.28;101376.19;5066589;28;20035;-70
2022/06/29 03:50:33;;;;;;;9.57;8.07;;;;;;;13.81;78.95;101378.31;5066234;28;20086;-68
2022/06/29 03:52:59;;;;;;;8.77;7.15;;;;;;;13.83;78.85;101370.84;5067482;28;20390;-70
2022/06/29 03:55:24;;;;;;;9.38;7.97;;;;;;;13.83;78.61;101376.31;5066066;28;20535;-70
2022/06/29 03:57:50;;;;;;;8.80;7.85;;;;;;;13.86;78.50;101370.63;5066173;28;20083;-70
2022/06/29 04:00:16;;;;;;;8.95;7.60;;;;;;;13.87;78.49;101371.50;5065042;28;20041;-70
2022/06/29 04:02:41;;;;;;;8.73;7.93;;;;;;;13.86;78.79;101365.16;5074284;28;20040;-70
2022/06/29 04:05:08;;;;;;;11.32;9.52;;;;;;;13.87;79.08;101368.75;5080554;28;20487;-70
2022/06/29 04:07:34;;;;;;;11.23;10.02;;;;;;;13.82;80.30;101362.78;5065795;28;20155;-68
2022/06/29 04:09:59;;;;;;;11.68;8.95;;;;;;;13.79;80.43;101367.47;5065144;28;20466;-70
2022/06/29 04:12:29;;;;;;;9.27;8.30;;;;;;;13.82;79.52;101369.13;5065802;28;20191;-70
2022/06/29 04:14:55;;;;;;;11.18;8.75;;;;;;;13.83;80.41;101370.00;5064666;28;20055;-70
2022/06/29 04:17:20;;;;;;;11.10;8.82;;;;;;;13.81;82.09;101364.66;5066529;28;20479;-70
2022/06/29 04:19:46;;;;;;;10.65;8.68;;;;;;;13.82;81.48;101376.47;5065482;28;20683;-70
2022/06/29 04:22:11;;;;;;;9.10;8.30;;;;;;;13.82;81.72;101376.47;5084342;28;20024;-70
2022/06/29 04:24:36;;;;;;;9.30;8.23;;;;;;;13.84;80.86;101372.59;5086086;28;20036;-70
2022/06/29 04:27:02;;;;;;;10.13;9.13;;;;;;;13.86;81.73;101367.03;5068027;28;20033;-70
2022/06/29 04:29:27;;;;;;;9.98;8.98;;;;;;;13.87;82.66;101372.38;5069331;28;20031;-70
2022/06/29 04:31:53;;;;;;;11.70;8.82;;;;;;;13.94;81.42;101367.28;5071131;28;20047;-70
2022/06/29 04:34:18;;;;;;;9.05;8.05;;;;;;;13.98;81.14;101361.44;5090782;28;20047;-70
2022/06/29 04:36:43;;;;;;;8.50;7.70;;;;;;;14.03;80.64;101356.50;5070974;28;20119;-70
2022/06/29 04:39:09;;;;;;;11.02;9.02;;;;;;;14.06;80.64;101363.59;5070303;28;20280;-70
2022/06/29 04:41:34;;;;;;;9.80;8.80;;;;;;;14.10;81.53;101369.69;5069155;28;20028;-70
2022/06/29 04:43:59;;;;;;;9.45;7.47;;;;;;;14.13;80.47;101362.13;5084875;28;20123;-69
2022/06/29 04:46:25;;;;;;;10.73;8.13;;;;;;;14.17;80.18;101355.38;5070045;28;20460;-70
2022/06/29 04:48:56;;;;;;;9.77;8.70;;;;;;;14.24;80.57;101364.00;5070138;28;20048;-70
2022/06/29 04:51:23;;;;;;;11.50;7.65;;;;;;;14.30;79.80;101364.38;5069562;28;20131;-70
2022/06/29 04:53:49;;;;;;;10.25;7.85;;;;;;;14.38;79.74;101368.38;5068912;28;20021;-70
2022/06/29 04:56:15;;;;;;;10.45;9.45;;;;;;;14.44;81.06;101371.47;5067242;28;20441;-70
2022/06/29 04:58:42;;;;;;;11.30;10.00;;;;;;;14.48;80.68;101370.28;5069106;28;20046;-70
2022/06/29 05:01:07;;;;;;;11.00;9.93;;;;;;;14.54;80.50;101358.81;5068963;28;20025;-70
2022/06/29 05:03:33;;;;;;;11.98;9.55;;;;;;;14.61;80.13;101366.56;5085318;28;20379;-70
2022/06/29 05:05:58;;;;;;;10.80;9.55;;;;;;;14.68;79.68;101365.03;5073365;28;20140;-70
2022/06/29 05:08:23;;;;;;;12.85;11.30;;;;;;;14.73;80.51;101360.06;5088362;28;20048;-70
2022/06/29 05:10:49;;;;;;;12.02;10.50;;;;;;;14.77;79.61;101356.94;5081941;28;20428;-70
2022/06/29 05:13:14;;;;;;;18.00;12.35;;;;;;;14.80;80.42;101347.63;5068838;28;20123;-70
2022/06/29 05:15:40;;;;;;;13.60;12.15;;;;;;;14.87;79.27;101353.44;5068357;28;20063;-70
2022/06/29 05:18:06;;;;;;;17.00;13.20;;;;;;;14.89;80.19;101343.25;5069971;28;20518;-70
2022/06/29 05:20:32;;;;;;;15.63;13.10;;;;;;;14.95;79.91;101345.47;5069516;28;20044;-70
2022/06/29 05:22:57;;;;;;;17.50;13.18;;;;;;;15.00;79.59;101348.69;5069501;28;20024;-70
2022/06/29 05:25:23;;;;;;;14.23;12.52;;;;;;;15.04;79.09;101345.56;5069309;28;20519;-70
2022/06/29 05:27:48;;;;;;;15.50;13.18;;;;;;;15.12;79.04;101352.31;5068575;28;20086;-70
2022/06/29 05:30:14;;;;;;;15.93;11.38;;;;;;;15.18;78.31;101346.31;5076832;28;20065;-70
2022/06/29 05:32:40;;;;;;;16.90;12.57;;;;;;;15.25;78.90;101339.31;5088229;28;20127;-70
2022/06/29 05:35:07;;;;;;;15.15;13.55;;;;;;;15.28;78.39;101339.03;5083604;28;20028;-70
2022/06/29 05:37:32;;;;;;;15.68;13.23;;;;;;;15.35;77.77;101344.88;5068645;28;20036;-70
2022/06/29 05:39:58;;;;;;;14.98;13.23;;;;;;;15.40;78.05;101337.16;5069066;28;20464;-69
2022/06/29 05:42:23;;;;;;;18.05;13.68;;;;;;;15.48;77.80;101340.06;5076753;28;20538;-70
2022/06/29 05:44:49;;;;;;;14.98;12.63;;;;;;;15.50;76.79;101338.09;5079471;28;20395;-70
2022/06/29 05:47:14;;;;;;;14.45;12.48;;;;;;;15.55;77.51;101336.69;5069255;28;20103;-70
2022/06/29 05:49:41;;;;;;;16.67;12.90;;;;;;;15.59;77.53;101340.06;5068657;28;20024;-70
2022/06/29 05:52:07;;;;;;;18.08;13.27;;;;;;;15.68;77.37;101339.28;5068973;28;20411;-70
2022/06/29 05:54:33;;;;;;;17.52;14.43;;;;;;;15.75;78.62;101339.63;5068210;28;20499;-70
2022/06/29 05:56:58;;;;;;;15.85;12.43;;;;;;;15.84;77.74;101341.56;5067462;28;20075;-70
2022/06/29 05:59:23;;;;;;;14.07;11.88;;;;;;;15.87;78.28;101338.56;5066169;28;20428;-70
2022/06/29 06:01:49;;;;;;;14.52;12.38;;;;;;;15.90;78.90;101342.91;5069018;28;20105;-71
2022/06/29 06:04:14;;;;;;;16.83;11.90;;;;;;;15.99;77.12;101348.50;5087518;28;20043;-70
2022/06/29 06:06:39;;;;;;;12.93;11.45;;;;;;;16.10;76.51;101343.94;5087457;28;20068;-71
2022/06/29 06:09:06;;;;;;;15.93;11.95;;;;;;;16.18;77.34;101341.34;5087393;28;20127;-70
2022/06/29 06:11:31;;;;;;;13.57;12.18;;;;;;;16.29;76.92;101341.28;5076023;28;20028;-70
2022/06/29 06:13:56;;;;;;;17.27;12.65;;;;;;;16.38;78.56;101345.97;5067303;28;20498;-70
2022/06/29 06:16:22;;;;;;;14.85;12.43;;;;;;;16.45;78.30;101338.03;5068116;28;20052;-70
2022/06/29 06:18:47;;;;;;;18.30;12.15;;;;;;;16.51;77.93;101332.88;5068364;28;20037;-70
2022/06/29 06:21:13;;;;;;;15.90;12.55;;;;;;;16.58;77.73;101335.94;5076639;28;20479;-70
2022/06/29 06:23:39;;;;;;;14.70;10.82;;;;;;;16.65;77.07;101331.66;5068658;28;20544;-71
2022/06/29 06:26:05;;;;;;;15.95;11.52;;;;;;;16.72;77.06;101340.22;5067125;28;20131;-70
2022/06/29 06:28:30;;;;;;;17.83;11.85;;;;;;;16.77;76.25;101340.66;5068234;28;20166;-69
2022/06/29 06:30:55;;;;;;;12.68;9.45;;;;;;;16.83;75.75;101338.25;5068051;28;20024;-71
2022/06/29 06:33:22;;;;;;;14.85;10.55;;;;;;;16.92;76.76;101336.50;5087774;28;20115;-70
2022/06/29 06:35:48;;;;;;;13.80;10.35;;;;;;;17.02;76.58;101340.19;5077353;28;20586;-70
2022/06/29 06:38:14;;;;;;;10.88;9.35;;;;;;;17.12;75.71;101339.34;5066873;28;20119;-70
2022/06/29 06:43:23;;;;;;;12.30;9.23;;;;;;;17.29;76.42;101336.75;5067399;28;20547;-70
2022/06/29 06:45:49;;;;;;;12.75;9.23;;;;;;;17.33;76.48;101335.44;5066036;28;20044;-70
2022/06/29 06:48:14;;;;;;;13.35;9.27;;;;;;;17.42;75.53;101332.84;5068254;28;20048;-70
2022/06/29 06:50:39;;;;;;;10.55;9.07;;;;;;;17.52;74.87;101336.47;5067162;28;20843;-70
2022/06/29 06:53:05;;;;;;;13.27;8.82;;;;;;;17.59;74.47;101333.00;5049440;28;20161;-68
2022/06/29 06:55:30;;;;;;;13.85;8.95;;;;;;;17.68;74.06;101338.66;5070204;28;20039;-70
2022/06/29 06:57:55;;;;;;;12.35;8.00;;;;;;;17.76;73.57;101334.19;5087258;28;20084;-70
2022/06/29 07:00:21;;;;;;;15.63;8.23;;;;;;;17.87;73.31;101341.44;5074481;28;20044;-70
2022/06/29 07:02:47;;;;;;;10.32;8.35;;;;;;;17.96;73.24;101331.44;5076275;28;20043;-70
2022/06/29 07:05:12;;;;;;;9.60;7.75;;;;;;;18.05;73.69;101339.69;5081662;28;20098;-70
2022/06/29 07:07:37;;;;;;;10.10;7.28;;;;;;;18.18;72.79;101332.97;5069346;28;20178;-70
2022/06/29 07:10:03;;;;;;;11.77;7.22;;;;;;;18.26;72.69;101336.72;5087226;28;20039;-69
2022/06/29 07:12:29;;;;;;;10.40;6.18;;;;;;;18.36;72.33;101340.31;5067232;28;20040;-70
2022/06/29 07:14:54;;;;;;;10.07;5.90;;;;;;;18.45;72.28;101335.78;5066132;28;20042;-70
2022/06/29 07:17:20;;;;;;;9.27;5.50;;;;;;;18.55;71.58;101335.75;5067310;28;20047;-70
2022/06/29 07:19:45;;;;;;;10.43;5.47;;;;;;;18.70;71.10;101338.91;5066506;28;20051;-70
2022/06/29 07:22:11;;;;;;;6.75;4.70;;;;;;;18.86;68.72;101336.38;5067324;28;20043;-70
2022/06/29 07:24:36;;;;;;;6.07;4.10;;;;;;;18.99;68.25;101336.03;5067062;28;20032;-71
2022/06/29 07:27:01;;;;;;;8.48;3.78;;;;;;;19.07;67.65;101331.47;5066359;28;20045;-70
2022/06/29 07:29:27;;;;;;;5.78;3.70;;;;;;;19.18;69.54;101343.31;5066005;28;20041;-70
2022/06/29 07:31:52;;;;;;;8.38;4.10;;;;;;;19.27;69.05;101339.63;5067947;28;20499;-71
2022/06/29 07:34:17;;;;;;;6.65;3.25;;;;;;;19.37;68.97;101334.91;5075213;28;20166;-71
2022/06/29 07:36:43;;;;;;;9.10;3.65;;;;;;;19.48;67.21;101326.38;5066632;28;20023;-70
2022/06/29 07:39:08;;;;;;;5.60;3.05;;;;;;;19.61;67.60;101335.16;5066682;28;20040;-70
2022/06/29 07:41:36;;;;;;;3.58;3.25;;;;;;;19.70;66.55;101330.59;5065975;28;20040;-68
2022/06/29 07:44:03;;;;;;;5.00;3.00;;;;;;;19.76;66.54;101332.72;5065694;28;20059;-68
2022/06/29 07:46:28;;;;;;;4.57;3.53;;;;;;;19.81;66.56;101324.81;5065490;28;20051;-70
2022/06/29 07:48:54;;;;;;;7.93;3.22;;;;;;;19.86;65.98;101324.34;5066754;28;20032;-70
2022/06/29 07:51:19;;;;;;;5.43;3.15;;;;;;;19.95;63.73;101317.84;5064578;28;20460;-70
2022/06/29 07:53:44;;;;;;;5.65;3.40;;;;;;;20.06;63.67;101323.13;5066580;28;20502;-70
2022/06/29 07:56:10;;;;;;;3.97;3.38;;;;;;;20.18;66.45;101320.97;5065530;28;20119;-70
2022/06/29 07:58:35;;;;;;;5.75;3.05;;;;;;;20.31;63.26;101326.94;5065807;28;20130;-70
2022/06/29 08:01:00;;;;;;;6.85;3.65;;;;;;;20.40;62.83;101319.56;5066279;28;20032;-70
2022/06/29 08:03:26;;;;;;;6.15;3.20;;;;;;;20.53;63.07;101313.63;5075009;28;20042;-70
2022/06/29 08:05:51;;;;;;;6.88;3.65;;;;;;;20.68;63.06;101313.88;5065947;28;20040;-69
2022/06/29 08:08:18;;;;;;;7.72;3.15;;;;;;;20.85;60.61;101304.63;5065836;28;20052;-70
2022/06/29 08:10:43;;;;;;;5.45;3.40;;;;;;;21.40;65.60;101309.63;5065600;28;20036;-70
2022/06/29 08:13:08;;;;;;;6.15;2.92;;;;;;;22.08;63.21;101311.22;5065587;28;20045;-69
2022/06/29 08:15:34;;;;;;;7.18;2.50;;;;;;;22.69;61.32;101306.94;5065560;28;20039;-70
2022/06/29 08:18:00;;;;;;;9.32;2.97;;;;;;;23.38;58.96;101310.78;5067139;28;20048;-70
2022/06/29 08:20:28;;;;;;;4.43;2.38;;;;;;;23.93;56.60;101320.81;5065848;28;20051;-70
2022/06/29 08:22:53;;;;;;;6.88;2.60;;;;;;;24.60;53.27;101311.63;5066332;28;20041;-70
2022/06/29 08:25:19;;;;;;;3.83;2.00;;;;;;;25.16;51.21;101302.75;5079160;28;20534;-70
2022/06/29 08:27:51;;;;;;;6.10;2.15;;;;;;;25.81;51.12;101310.16;5065455;28;20033;-70
2022/06/29 08:30:17;;;;;;;5.05;2.08;;;;;;;26.39;46.18;101305.28;5064289;28;20044;-70
2022/06/29 08:32:44;;;;;;;5.43;2.20;;;;;;;26.75;45.72;101295.84;5074170;28;20043;-70
2022/06/29 08:35:11;;;;;;;3.58;2.03;;;;;;;27.20;45.24;101299.94;5080291;28;20028;-70
2022/06/29 08:37:37;;;;;;;4.53;2.03;;;;;;;27.68;45.92;101299.84;5066116;28;20041;-70
2022/06/29 08:40:04;;;;;;;5.75;2.10;;;;;;;28.06;42.49;101304.00;5066296;28;20083;-68
2022/06/29 08:42:30;;;;;;;7.28;2.58;;;;;;;28.37;45.07;101303.38;5065803;28;20483;-70
2022/06/29 08:44:57;;;;;;;5.82;1.92;;;;;;;28.69;44.00;101299.63;5064047;28;20106;-70
2022/06/29 08:47:23;;;;;;;3.30;1.80;;;;;;;28.88;39.70;101289.44;5066137;28;20047;-70
2022/06/29 08:49:48;;;;;;;8.82;1.92;;;;;;;28.88;42.66;101283.84;5063703;28;20191;-70
2022/06/29 08:52:15;;;;;;;2.95;2.05;;;;;;;29.10;42.32;101281.63;5064529;28;20044;-70
2022/06/29 08:54:46;;;;;;;1.70;1.40;;;;;;;29.47;43.71;101284.63;5065862;28;20050;-69
2022/06/29 08:57:12;;;;;;;2.85;1.88;;;;;;;29.76;36.65;101287.97;5064898;28;20041;-69
2022/06/29 08:59:38;;;;;;;2.83;1.33;;;;;;;30.18;37.20;101290.00;5064354;28;20026;-70
2022/06/29 09:02:04;;;;;;;3.47;1.52;;;;;;;30.36;38.52;101291.13;5068586;28;20036;-67
2022/06/29 09:04:29;;;;;;;2.28;1.25;;;;;;;30.43;35.97;101287.16;5085055;28;20052;-69
2022/06/29 09:06:56;;;;;;;4.97;1.58;;;;;;;30.62;39.40;101284.34;5066329;28;20032;-69
2022/06/29 09:09:22;;;;;;;5.13;1.98;;;;;;;30.81;38.78;101279.63;5077562;28;20501;-70
2022/06/29 09:11:50;;;;;;;6.82;1.42;;;;;;;31.15;34.71;101281.81;5068123;28;20048;-70
2022/06/29 09:14:16;;;;;;;3.20;1.65;;;;;;;31.65;34.01;101280.66;5067847;28;20064;-69
2022/06/29 09:17:01;;;;;;;2.30;1.65;;;;;;;31.78;36.89;101285.22;5089343;28;20028;-70
2022/06/29 09:19:45;;;;;;;2.13;1.55;;;;;;;31.92;36.38;101283.94;5089588;28;20517;-70
2022/06/29 09:22:11;;;;;;;8.75;2.00;;;;;;;31.88;32.99;101285.53;5069646;28;20510;-70
2022/06/29 09:24:37;;;;;;;4.07;1.80;;;;;;;31.58;33.33;101280.78;5068785;28;20102;-69
2022/06/29 09:27:04;;;;;;;4.35;1.75;;;;;;;31.43;32.94;101294.41;5068475;28;20589;-70
2022/06/29 09:29:39;;;;;;;5.40;1.63;;;;;;;31.61;35.93;101283.09;5068266;28;20032;-70
2022/06/29 09:32:04;;;;;;;3.88;1.50;;;;;;;31.75;36.79;101283.75;5071594;28;20037;-69
2022/06/29 09:34:33;;;;;;;4.18;1.45;;;;;;;31.88;34.22;101285.53;5089854;28;20043;-70
2022/06/29 09:37:00;;;;;;;5.70;2.00;;;;;;;32.21;33.20;101282.13;5083663;28;20137;-70
2022/06/29 09:39:50;;;;;;;4.22;1.70;;;;;;;32.47;37.07;101287.31;5068915;28;20036;-69
2022/06/29 09:42:16;;;;;;;8.07;1.83;;;;;;;32.55;33.19;101280.47;5073808;28;20039;-69
2022/06/29 09:44:43;;;;;;;4.47;1.30;;;;;;;32.60;34.77;101283.41;5081591;28;20303;-70
2022/06/29 09:47:15;;;;;;;5.93;1.70;;;;;;;32.66;32.38;101284.38;5068821;28;20033;-70
2022/06/29 09:49:45;;;;;;;4.05;1.50;;;;;;;32.64;33.81;101289.38;5067902;28;20491;-69
2022/06/29 09:52:12;;;;;;;4.07;1.80;;;;;;;32.28;28.62;101279.22;5068669;28;20036;-70
2022/06/29 09:54:47;;;;;;;4.60;1.67;;;;;;;32.26;33.72;101280.28;5068649;28;20046;-70
2022/06/29 09:57:15;;;;;;;5.72;1.80;;;;;;;32.40;32.45;101277.28;5067657;28;20115;-70
2022/06/29 10:02:50;;;;;;;3.47;1.90;;;;;;;32.53;31.19;101273.34;5077386;28;20107;-70
2022/06/29 10:05:17;;;;;;;2.90;1.70;;;;;;;32.47;31.01;101278.88;5081234;28;20135;-70
2022/06/29 10:07:45;;;;;;;4.78;1.75;;;;;;;32.71;33.59;101281.66;5068751;28;20044;-70
2022/06/29 10:10:13;;;;;;;1.92;1.23;;;;;;;32.89;33.78;101269.38;5067763;28;20037;-70
2022/06/29 10:15:56;;;;;;;3.00;1.38;;;;;;;32.82;34.33;101271.47;5067303;28;20037;-69
2022/06/29 10:18:31;;;;;;;2.78;1.13;;;;;;;33.06;32.06;101272.28;5068468;28;20538;-69
2022/06/29 10:20:57;;;;;;;5.43;1.33;;;;;;;32.79;29.79;101278.47;5067124;28;20384;-70
2022/06/29 10:23:42;;;;;;;1.38;1.27;;;;;;;32.48;33.56;101266.50;5068121;28;20479;-70
2022/06/29 10:26:37;;;;;;;2.63;1.30;;;;;;;32.47;31.40;101264.78;5067310;28;20051;-69
2022/06/29 10:29:05;;;;;;;1.92;1.33;;;;;;;32.69;31.81;101266.94;5067278;28;20479;-69
2022/06/29 10:31:49;;;;;;;1.75;1.35;;;;;;;32.52;30.77;101261.22;5069645;28;20097;-70
2022/06/29 10:34:30;;;;;;;2.40;1.30;;;;;;;32.20;31.38;101261.56;5088063;28;20528;-70
2022/06/29 10:37:09;;;;;;;5.00;1.45;;;;;;;32.54;34.56;101260.97;5069181;28;20090;-70
2022/06/29 10:39:34;;;;;;;2.85;1.40;;;;;;;32.51;31.08;101256.69;5067896;28;20048;-69
2022/06/29 10:45:01;;;;;;;3.38;1.20;;;;;;;32.21;33.50;101248.34;5068438;28;20419;-69
2022/06/29 10:47:27;;;;;;;3.00;1.30;;;;;;;31.92;33.20;101244.53;5088153;28;20043;-70
2022/06/29 10:50:14;;;;;;;2.40;1.33;;;;;;;32.13;34.85;101248.69;5085918;28;20055;-70
2022/06/29 10:52:41;;;;;;;3.50;1.40;;;;;;;31.90;31.44;101246.75;5067744;28;20117;-69
2022/06/29 10:55:07;;;;;;;5.63;1.45;;;;;;;31.61;31.32;101234.41;5067052;28;20538;-67
2022/06/29 10:57:34;;;;;;;3.58;1.30;;;;;;;31.47;32.85;101229.00;5067444;28;20090;-70
2022/06/29 10:59:59;;;;;;;2.55;1.20;;;;;;;31.29;32.37;101231.91;5066597;28;20082;-70
2022/06/29 11:02:25;;;;;;;6.40;1.33;;;;;;;31.05;34.28;101233.69;5072894;28;20036;-69
2022/06/29 11:04:50;;;;;;;2.20;1.50;;;;;;;30.84;33.14;101235.06;5085780;28;20134;-69
2022/06/29 11:12:48;;;;;;;3.40;1.60;;;;;;;30.70;34.58;101227.88;5066670;28;20036;-69
2022/06/29 11:18:16;;;;;;;5.45;1.50;;;;;;;30.54;37.07;101228.50;5043925;28;20062;-70
2022/06/29 11:20:43;;;;;;;4.78;1.40;;;;;;;30.27;35.15;101227.94;5073770;28;20040;-70
2022/06/29 11:23:14;;;;;;;1.85;1.58;;;;;;;30.27;35.86;101227.94;5087094;28;20020;-69
2022/06/29 11:25:46;;;;;;;2.83;1.42;;;;;;;30.29;38.27;101223.81;5082053;28;20419;-69
2022/06/29 11:28:12;;;;;;;5.53;1.33;;;;;;;30.33;34.88;101219.44;5066231;28;20040;-70
2022/06/29 11:30:38;;;;;;;4.75;1.50;;;;;;;30.30;33.61;101224.66;5065318;28;20075;-70
2022/06/29 11:33:11;;;;;;;4.60;1.60;;;;;;;30.13;41.11;101221.59;5078392;28;20048;-69
2022/06/29 11:35:38;;;;;;;3.38;1.38;;;;;;;30.18;41.02;101221.78;5073311;28;20063;-69
2022/06/29 11:38:05;;;;;;;5.60;2.03;;;;;;;30.51;34.82;101210.16;5066978;28;20051;-67
2022/06/29 11:40:38;;;;;;;5.53;1.60;;;;;;;30.81;34.98;101212.19;5067033;28;20430;-67
2022/06/29 11:43:12;;;;;;;4.35;1.30;;;;;;;30.69;33.89;101212.97;5064372;28;20051;-67